Cookley, United Kingdom
Current Conditions -  °F | °C
As of 6:20 AM on Thursday 29 Jan 2015 (Local Time) from EGSD Reporting Station
Clear Clear  
Wind Chill: 25°   Ceiling: Unl
Heat Index: 36°   Visibility: 6mi
Dew Point: 32°   Wind: 21mph
Humidity: 87%   Direction: 240°WSW
Pressure: 29.15"   Gusts: NA
Location:  52.32°N, 1.45°E
Report Text: EGSD 290620Z 24018KT CAVOK 02/00 Q0987
Loading
Personal Weather Stations






























Interactive Weather Map New forecast layout! Learn more

10-Day Weather Forecast

Advertisements
Track Severe Weather on mobile